KLCH

Lake Charles Regional Airport

Lake Charles, Louisiana, USA
METAR KLCH 230953Z AUTO 03007KT 10SM FEW095 16/12 A3010 RMK AO2 SLP201 T01560117
Observed Flight Rules
Oct-23 @ 09:53 UTC (40 minutes ago) Visual Flight Rules
Wind Visibility Clouds
30° at 7 knots 10 miles
  • Few at 9,500' AGL
Temperatures Readings
Current 16°C / 61°F
Dewpoint 12°C / 54°F
Humidity 77%
Altimeter 30.1" Hg
Pressure 1020.1 hPa
Elevation 4
METAR KLCH 230953Z AUTO 03007KT 10SM FEW095 16/12 A3010 RMK AO2 SLP201 T01560117
Observed Flight Rules
Oct-23 @ 09:53 UTC
(40 minutes ago)
VFR
Wind Visibility
30° at 7 knots 10 miles
Clouds
  • Few at 9,500' AGL
Temperature Dewpoint
16°C / 61°F 12°C / 54°F
Humidity Altimeter Pressure
77% 30.1" Hg 1020.1 hPa